createdAt,value
2023-02-03T00:00:46.877Z,101578.91
2023-02-03T00:03:53.000Z,101565.91
2023-02-03T00:06:58.590Z,101603.84
2023-02-03T00:10:05.686Z,101585.66
2023-02-03T00:13:10.193Z,101585.50
2023-02-03T00:16:18.187Z,101594.25
2023-02-03T00:19:23.597Z,101604.16
2023-02-03T00:22:29.521Z,101601.00
2023-02-03T00:25:35.514Z,101595.81
2023-02-03T00:28:42.581Z,101583.28
2023-02-03T00:31:48.643Z,101594.53
2023-02-03T00:34:55.158Z,101594.69
2023-02-03T00:38:00.596Z,101583.81
2023-02-03T00:41:07.337Z,101589.63
2023-02-03T00:44:12.779Z,101574.91
2023-02-03T00:47:19.266Z,101581.16
2023-02-03T00:50:22.976Z,101583.16
2023-02-03T00:53:31.169Z,101563.31
2023-02-03T00:56:35.078Z,101584.78
2023-02-03T00:59:39.306Z,101579.06
2023-02-03T01:02:43.114Z,101535.47
2023-02-03T01:05:52.211Z,101546.13
2023-02-03T01:08:56.199Z,101585.19
2023-02-03T01:12:06.651Z,101582.19
2023-02-03T01:15:12.319Z,101531.44
2023-02-03T01:18:18.767Z,101575.28
2023-02-03T01:21:27.059Z,101555.28
2023-02-03T01:24:34.203Z,101572.53
2023-02-03T01:27:38.043Z,101564.69
2023-02-03T01:30:45.759Z,101568.59
2023-02-03T01:33:53.297Z,101536.72
2023-02-03T01:36:59.540Z,101569.41
2023-02-03T01:40:05.655Z,101558.66
2023-02-03T01:43:34.369Z,101551.75
2023-02-03T01:46:49.625Z,101557.66
2023-02-03T01:50:18.215Z,101559.28
2023-02-03T01:53:22.740Z,101569.28
2023-02-03T01:56:41.929Z,101564.34
2023-02-03T01:59:46.795Z,101550.16
2023-02-03T02:02:51.994Z,101557.88
2023-02-03T02:06:01.655Z,101553.84
2023-02-03T02:09:09.340Z,101521.34
2023-02-03T02:12:13.410Z,101549.22
2023-02-03T02:15:27.088Z,101561.41
2023-02-03T02:18:46.662Z,101543.88
2023-02-03T02:22:04.120Z,101534.06
2023-02-03T02:25:38.046Z,101528.09
2023-02-03T02:29:17.499Z,101526.66
2023-02-03T02:32:43.966Z,101518.13
2023-02-03T02:36:09.681Z,101518.06
2023-02-03T02:39:15.750Z,101517.78
2023-02-03T02:42:45.191Z,101513.50
2023-02-03T02:45:53.288Z,101519.75
2023-02-03T02:49:28.987Z,101515.88
2023-02-03T02:52:44.847Z,101464.53
2023-02-03T02:55:54.763Z,101506.97
2023-02-03T02:59:03.812Z,101489.53
2023-02-03T03:02:09.650Z,101506.84
2023-02-03T03:05:19.527Z,101315.88
2023-02-03T03:08:53.627Z,101452.50
2023-02-03T03:12:05.721Z,101488.81
2023-02-03T03:15:20.877Z,101486.94
2023-02-03T03:18:39.881Z,101463.25
2023-02-03T03:21:50.483Z,101484.78
2023-02-03T03:25:04.587Z,101476.88
2023-02-03T03:28:17.607Z,101472.19
2023-02-03T03:31:23.509Z,101435.22
2023-02-03T03:34:29.309Z,101475.22
2023-02-03T03:37:48.691Z,101453.91
2023-02-03T03:41:04.170Z,101389.59
2023-02-03T03:44:15.222Z,101461.88
2023-02-03T03:47:29.364Z,101438.41
2023-02-03T03:50:54.448Z,101460.41
2023-02-03T03:54:06.268Z,101447.19
2023-02-03T03:57:16.104Z,101446.91
2023-02-03T04:00:27.113Z,101445.41
2023-02-03T04:04:06.654Z,101441.06
2023-02-03T04:07:15.689Z,101415.09
2023-02-03T04:10:35.291Z,101433.50
2023-02-03T04:13:40.964Z,101405.31
2023-02-03T04:16:47.198Z,101421.66
2023-02-03T04:19:52.890Z,101431.69
2023-02-03T04:22:59.460Z,101417.53
2023-02-03T04:26:05.173Z,101430.41
2023-02-03T04:29:11.492Z,101412.00
2023-02-03T04:32:17.659Z,101327.53
2023-02-03T04:35:23.516Z,101401.38
2023-02-03T04:38:30.711Z,101381.22
2023-02-03T04:41:36.676Z,101415.06
2023-02-03T04:44:42.270Z,101396.16
2023-02-03T04:47:54.388Z,101400.75
2023-02-03T04:51:06.447Z,101401.16
2023-02-03T04:54:13.020Z,101388.09
2023-02-03T04:57:18.724Z,101317.63
2023-02-03T05:00:24.594Z,101344.06
2023-02-03T05:03:30.072Z,101392.94
2023-02-03T05:06:35.978Z,101373.91
2023-02-03T05:09:39.571Z,101396.66
2023-02-03T05:12:43.603Z,101391.03
2023-02-03T05:15:49.156Z,101389.97
2023-02-03T05:18:55.353Z,101392.75
2023-02-03T05:22:01.413Z,101389.97
2023-02-03T05:25:07.592Z,101398.31
2023-02-03T05:28:13.458Z,101401.09
2023-02-03T05:31:19.369Z,101346.59
2023-02-03T05:34:25.504Z,101369.81
2023-02-03T05:37:31.345Z,101401.25
2023-02-03T05:40:55.590Z,101351.56
2023-02-03T05:44:01.481Z,101337.94
2023-02-03T05:47:07.015Z,101406.13
2023-02-03T05:50:13.111Z,101392.34
2023-02-03T05:53:19.283Z,101404.25
2023-02-03T05:56:25.117Z,101394.91
2023-02-03T05:59:30.668Z,101379.03
2023-02-03T06:02:34.676Z,101379.31
2023-02-03T06:05:44.606Z,101407.41
2023-02-03T06:08:52.977Z,101395.75
2023-02-03T06:11:56.886Z,101385.63
2023-02-03T06:15:04.107Z,101393.09
2023-02-03T06:18:10.447Z,101366.66
2023-02-03T06:21:16.438Z,101353.19
2023-02-03T06:24:22.417Z,101391.16
2023-02-03T06:27:28.784Z,101372.94
2023-02-03T06:30:38.386Z,101373.81
2023-02-03T06:33:46.015Z,101373.31
2023-02-03T06:37:00.443Z,101307.00
2023-02-03T06:40:06.779Z,101371.97
2023-02-03T06:43:12.414Z,101369.50
2023-02-03T06:46:21.709Z,101306.53
2023-02-03T06:49:30.292Z,101317.06
2023-02-03T06:52:36.151Z,101387.16
2023-02-03T06:55:41.705Z,101404.03
2023-02-03T06:58:48.889Z,101376.63
2023-02-03T07:01:58.108Z,101402.59
2023-02-03T07:05:04.403Z,101380.13
2023-02-03T07:08:10.065Z,101402.59
2023-02-03T07:11:16.220Z,101399.19
2023-02-03T07:14:20.362Z,101370.09
2023-02-03T07:17:29.841Z,101386.34
2023-02-03T07:20:35.938Z,101409.78
2023-02-03T07:23:42.347Z,101408.78
2023-02-03T07:26:48.322Z,101403.91
2023-02-03T07:29:53.994Z,101411.00
2023-02-03T07:32:59.622Z,101416.22
2023-02-03T07:36:06.144Z,101396.13
2023-02-03T07:39:12.712Z,101370.38
2023-02-03T07:42:18.468Z,101377.53
2023-02-03T07:45:28.749Z,101403.22
2023-02-03T07:48:34.504Z,101391.44
2023-02-03T07:51:40.300Z,101397.63
2023-02-03T07:54:45.996Z,101411.81
2023-02-03T07:57:51.690Z,101416.84
2023-02-03T08:00:58.454Z,101423.38
2023-02-03T08:04:06.268Z,101413.56
2023-02-03T08:07:12.546Z,101415.72
2023-02-03T08:10:18.818Z,101398.13
2023-02-03T08:13:24.818Z,101419.59
2023-02-03T08:16:30.429Z,101413.84
2023-02-03T08:19:57.993Z,101415.28
2023-02-03T08:23:03.651Z,101422.03
2023-02-03T08:26:09.634Z,101400.81
2023-02-03T08:29:14.952Z,101419.41
2023-02-03T08:32:22.428Z,101367.47
2023-02-03T08:35:29.876Z,101410.69
2023-02-03T08:42:12.859Z,101431.28
2023-02-03T08:45:19.062Z,101435.94
2023-02-03T08:48:24.788Z,101422.16
2023-02-03T08:51:30.963Z,101420.72
2023-02-03T08:54:37.179Z,101414.28
2023-02-03T08:57:44.079Z,101412.94
2023-02-03T09:00:50.958Z,101383.91
2023-02-03T09:03:57.061Z,101420.09
2023-02-03T09:07:05.760Z,101431.81
2023-02-03T09:10:11.744Z,101421.88
2023-02-03T09:13:18.360Z,101438.16
2023-02-03T09:16:24.696Z,101450.44
2023-02-03T09:19:31.523Z,101430.63
2023-02-03T09:22:37.311Z,101394.44
2023-02-03T09:25:46.285Z,101430.44
2023-02-03T09:28:51.622Z,101425.56
2023-02-03T09:31:58.627Z,101450.56
2023-02-03T09:35:06.065Z,101411.25
2023-02-03T09:38:11.736Z,101449.66
2023-02-03T09:41:52.305Z,101459.38
2023-02-03T09:45:19.206Z,101453.50
2023-02-03T09:48:32.873Z,101452.19
2023-02-03T09:51:50.531Z,101369.53
2023-02-03T09:55:07.016Z,101454.81
2023-02-03T09:58:24.503Z,101462.75
2023-02-03T10:01:55.545Z,101457.94
2023-02-03T10:05:09.755Z,101418.38
2023-02-03T10:08:51.187Z,101465.75
2023-02-03T10:12:25.618Z,101458.72
2023-02-03T10:16:03.083Z,101461.38
2023-02-03T10:19:17.479Z,101454.94
2023-02-03T10:22:29.104Z,101463.28
2023-02-03T10:25:43.061Z,101467.81
2023-02-03T10:29:19.183Z,101461.53
2023-02-03T10:32:31.273Z,101477.03
2023-02-03T10:35:58.536Z,101468.97
2023-02-03T10:39:13.262Z,101477.13
2023-02-03T10:42:18.458Z,101457.75
2023-02-03T10:45:25.808Z,101405.53
2023-02-03T10:48:32.194Z,101491.91
2023-02-03T10:51:52.893Z,101482.16
2023-02-03T10:55:00.209Z,101487.16
2023-02-03T10:58:17.240Z,101483.66
2023-02-03T11:01:27.570Z,101431.97
2023-02-03T11:04:34.825Z,101485.19
2023-02-03T11:07:40.674Z,101396.72
2023-02-03T11:11:04.075Z,101462.97
2023-02-03T11:17:46.917Z,101441.41
2023-02-03T11:20:54.327Z,101486.88
2023-02-03T11:24:27.454Z,101468.84
2023-02-03T11:27:35.686Z,101463.25
2023-02-03T11:30:45.358Z,101463.78
2023-02-03T11:34:01.138Z,101408.19
2023-02-03T11:37:33.357Z,101477.38
2023-02-03T11:40:40.788Z,101473.13
2023-02-03T11:43:48.045Z,101478.44
2023-02-03T11:46:57.850Z,101435.38
2023-02-03T11:50:24.983Z,101467.09
2023-02-03T11:53:57.014Z,101482.94
2023-02-03T11:57:39.806Z,101372.47
2023-02-03T12:01:14.998Z,101494.81
2023-02-03T12:05:01.385Z,101486.78
2023-02-03T12:08:15.888Z,101484.56
2023-02-03T12:12:12.040Z,101487.38
2023-02-03T12:15:57.762Z,101489.56
2023-02-03T12:19:22.880Z,101471.97
2023-02-03T12:22:36.465Z,101393.34
2023-02-03T12:26:07.474Z,101483.78
2023-02-03T12:29:21.610Z,101475.78
2023-02-03T12:32:39.199Z,101384.53
2023-02-03T12:35:55.524Z,101476.53
2023-02-03T12:39:13.870Z,101356.91
2023-02-03T12:42:35.860Z,101480.75
2023-02-03T12:45:49.148Z,101472.78
2023-02-03T12:49:08.479Z,101480.75
2023-02-03T12:52:37.652Z,101479.91
2023-02-03T12:55:55.907Z,101460.72
2023-02-03T12:59:22.230Z,101475.66
2023-02-03T13:02:34.037Z,101473.88
2023-02-03T13:05:49.428Z,101472.06
2023-02-03T13:09:39.834Z,101481.19
2023-02-03T13:12:52.953Z,101488.41
2023-02-03T13:15:59.719Z,101470.41
2023-02-03T13:19:19.948Z,101476.81
2023-02-03T13:22:27.908Z,101479.31
2023-02-03T13:26:13.112Z,101457.88
2023-02-03T13:29:24.375Z,101483.00
2023-02-03T13:32:47.689Z,101489.66
2023-02-03T13:36:02.638Z,101463.03
2023-02-03T13:39:39.915Z,101448.50
2023-02-03T13:43:07.643Z,101436.63
2023-02-03T13:46:30.588Z,101375.91
2023-02-03T13:49:38.039Z,101347.88
2023-02-03T13:53:25.333Z,101484.91
2023-02-03T13:56:33.628Z,101498.25
2023-02-03T13:59:39.794Z,101496.00
2023-02-03T14:02:53.878Z,101506.75
2023-02-03T14:06:02.538Z,101497.53
2023-02-03T14:09:32.471Z,101500.31
2023-02-03T14:12:41.191Z,101492.25
2023-02-03T14:16:07.030Z,101414.94
2023-02-03T14:19:34.301Z,101500.31
2023-02-03T14:22:41.353Z,101452.97
2023-02-03T14:25:52.400Z,101460.13
2023-02-03T14:28:58.368Z,101466.81
2023-02-03T14:32:10.744Z,101438.59
2023-02-03T14:35:21.251Z,101454.09
2023-02-03T14:38:34.172Z,101478.88
2023-02-03T14:41:47.869Z,101454.44
2023-02-03T14:45:09.742Z,101480.59
2023-02-03T14:48:24.078Z,101485.81
2023-02-03T14:51:47.855Z,101428.00
2023-02-03T14:55:07.180Z,101481.03
2023-02-03T14:58:37.568Z,101467.75
2023-02-03T15:01:42.947Z,101482.72
2023-02-03T15:04:51.566Z,101448.47
2023-02-03T15:07:57.482Z,101475.63
2023-02-03T15:11:33.190Z,101468.28
2023-02-03T15:14:39.543Z,101465.84
2023-02-03T15:17:45.509Z,101463.59
2023-02-03T15:20:55.382Z,101457.41
2023-02-03T15:24:01.844Z,101456.41
2023-02-03T15:27:23.078Z,101467.72
2023-02-03T15:30:30.751Z,101470.34
2023-02-03T15:33:39.595Z,101461.53
2023-02-03T15:36:50.928Z,101440.03
2023-02-03T15:40:18.520Z,101433.47
2023-02-03T15:43:40.250Z,101455.34
2023-02-03T15:46:52.663Z,101470.94
2023-02-03T15:50:18.084Z,101458.09
2023-02-03T15:53:41.087Z,101454.78
2023-02-03T15:57:11.623Z,101445.47
2023-02-03T16:00:32.151Z,101447.13
2023-02-03T16:03:46.075Z,101413.06
2023-02-03T16:06:54.923Z,101413.28
2023-02-03T16:10:03.779Z,101440.03
2023-02-03T16:13:26.735Z,101427.88
2023-02-03T16:16:43.689Z,101440.38
2023-02-03T16:20:13.641Z,101449.06
2023-02-03T16:23:24.521Z,101446.44
2023-02-03T16:26:32.388Z,101433.63
2023-02-03T16:29:56.920Z,101441.94
2023-02-03T16:33:29.493Z,101436.31
2023-02-03T16:36:59.979Z,101447.31
2023-02-03T16:40:24.562Z,101379.38
2023-02-03T16:43:48.842Z,101446.34
2023-02-03T16:47:16.407Z,101450.72
2023-02-03T16:51:02.330Z,101402.97
2023-02-03T16:54:15.763Z,101452.75
2023-02-03T16:57:24.918Z,101409.06
2023-02-03T17:00:42.255Z,101447.16
2023-02-03T17:04:12.843Z,101445.34
2023-02-03T17:07:18.257Z,101436.41
2023-02-03T17:10:25.224Z,101451.25
2023-02-03T17:13:31.351Z,101440.94
2023-02-03T17:16:37.845Z,101436.09
2023-02-03T17:19:43.298Z,101406.78
2023-02-03T17:22:52.541Z,101430.16
2023-02-03T17:25:58.803Z,101443.94
2023-02-03T17:29:05.614Z,101451.63
2023-02-03T17:32:15.698Z,101439.25
2023-02-03T17:35:21.628Z,101448.72
2023-02-03T17:38:27.416Z,101436.22
2023-02-03T17:55:04.745Z,101413.28
2023-02-03T17:58:10.465Z,101420.59
2023-02-03T18:01:20.818Z,101380.28
2023-02-03T18:04:24.627Z,101419.94
2023-02-03T18:07:29.260Z,101382.25
2023-02-03T18:10:35.218Z,101328.84
2023-02-03T18:13:45.591Z,101421.97
2023-02-03T18:16:53.961Z,101379.16
2023-02-03T18:20:01.559Z,101402.69
2023-02-03T18:23:08.018Z,101401.69
2023-02-03T18:26:14.821Z,101354.00
2023-02-03T18:29:21.600Z,101401.06
2023-02-03T18:32:27.520Z,101380.97
2023-02-03T18:35:34.385Z,101393.56
2023-02-03T18:38:42.510Z,101401.47
2023-02-03T18:41:48.261Z,101379.72
2023-02-03T18:44:54.345Z,101356.94
2023-02-03T18:47:59.768Z,101364.00
2023-02-03T18:51:10.233Z,101352.03
2023-02-03T18:54:15.690Z,101377.75
2023-02-03T18:57:25.035Z,101374.06
2023-02-03T19:00:30.915Z,101359.63
2023-02-03T19:03:38.714Z,101341.13
2023-02-03T19:06:46.265Z,101321.34
2023-02-03T19:09:59.910Z,101370.31
2023-02-03T19:13:05.357Z,101283.13
2023-02-03T19:16:15.075Z,101361.00
2023-02-03T19:19:21.229Z,101355.81
2023-02-03T19:22:27.146Z,101312.22
2023-02-03T19:25:32.536Z,101358.31
2023-02-03T19:28:41.212Z,101356.69
2023-02-03T19:31:46.912Z,101351.44
2023-02-03T19:34:52.989Z,101347.25
2023-02-03T19:37:58.779Z,101327.69
2023-02-03T19:41:05.518Z,101306.56
2023-02-03T19:44:11.350Z,101267.94
2023-02-03T19:47:17.596Z,101340.84
2023-02-03T19:50:22.985Z,101333.63
2023-02-03T19:53:29.396Z,101328.06
2023-02-03T19:56:34.883Z,101257.53
2023-02-03T19:59:40.778Z,101292.22
2023-02-03T20:02:46.336Z,101327.94
2023-02-03T20:05:55.666Z,101327.41
2023-02-03T20:09:01.145Z,101329.50
2023-02-03T20:12:07.652Z,101336.88
2023-02-03T20:15:11.532Z,101303.88
2023-02-03T20:18:17.583Z,101327.94
2023-02-03T20:21:23.155Z,101322.72
2023-02-03T20:24:29.336Z,101326.50
2023-02-03T20:27:34.739Z,101306.28
2023-02-03T20:30:41.783Z,101306.91
2023-02-03T20:33:45.578Z,101291.25
2023-02-03T20:36:53.201Z,101323.00
2023-02-03T20:39:59.148Z,101296.31
2023-02-03T20:43:16.566Z,101325.75
2023-02-03T20:46:22.744Z,101328.81
2023-02-03T20:49:29.203Z,101299.53
2023-02-03T20:52:35.121Z,101304.34
2023-02-03T20:55:41.091Z,101277.09
2023-02-03T20:58:46.929Z,101301.50
2023-02-03T21:01:53.409Z,101313.88
2023-02-03T21:04:59.699Z,101295.28
2023-02-03T21:08:18.457Z,101319.91
2023-02-03T21:11:28.184Z,101323.19
2023-02-03T21:14:40.481Z,101232.38
2023-02-03T21:17:44.561Z,101300.41
2023-02-03T21:20:50.788Z,101318.56
2023-02-03T21:23:56.508Z,101323.81
2023-02-03T21:27:03.857Z,101333.50
2023-02-03T21:30:33.310Z,101318.03
2023-02-03T21:33:46.578Z,101311.44
2023-02-03T21:36:51.971Z,101292.06
2023-02-03T21:39:58.352Z,101311.44
2023-02-03T21:43:04.034Z,101314.97
2023-02-03T21:46:23.268Z,101304.00
2023-02-03T21:49:30.339Z,101321.94
2023-02-03T21:52:36.399Z,101317.28
2023-02-03T21:55:43.508Z,101298.88
2023-02-03T21:58:51.684Z,101237.44
2023-02-03T22:02:00.577Z,101301.88
2023-02-03T22:05:06.741Z,101312.03
2023-02-03T22:08:23.545Z,101334.47
2023-02-03T22:11:31.200Z,101312.03
2023-02-03T22:14:37.513Z,101320.63
2023-02-03T22:17:42.707Z,101324.97
2023-02-03T22:20:46.698Z,101290.00
2023-02-03T22:23:53.095Z,101272.97
2023-02-03T22:27:00.882Z,101297.72
2023-02-03T22:30:06.943Z,101319.28
2023-02-03T22:33:12.658Z,101290.97
2023-02-03T22:36:18.561Z,101305.34
2023-02-03T22:39:24.206Z,101322.72
2023-02-03T22:42:30.671Z,101295.44
2023-02-03T22:45:36.412Z,101312.13
2023-02-03T22:48:42.656Z,101299.16
2023-02-03T22:51:47.097Z,101262.81
2023-02-03T22:54:54.997Z,101308.06
2023-02-03T22:58:00.690Z,101289.38
2023-02-03T23:01:06.536Z,101323.28
2023-02-03T23:04:12.744Z,101312.34
2023-02-03T23:07:19.098Z,101338.44
2023-02-03T23:10:27.474Z,101349.16
2023-02-03T23:13:32.988Z,101313.84
2023-02-03T23:16:39.038Z,101328.47
2023-02-03T23:19:43.352Z,101324.78
2023-02-03T23:22:48.597Z,101283.56
2023-02-03T23:25:54.711Z,101298.78
2023-02-03T23:29:00.470Z,101353.97
2023-02-03T23:32:07.265Z,101336.59
2023-02-03T23:35:32.549Z,101343.34
2023-02-03T23:38:39.176Z,101350.69
2023-02-03T23:41:44.885Z,101275.34
2023-02-03T23:44:50.550Z,101357.63
2023-02-03T23:47:56.324Z,101346.25
2023-02-03T23:51:02.599Z,101355.03
2023-02-03T23:54:08.751Z,101349.22
2023-02-03T23:57:14.808Z,101351.09
